Phelps, WI

6:50 AM CDT on September 25, 2016 (GMT -0500)
RAWS | | Change Station

Elev 1770 ft 46.04 °N, 89.10 °W | Updated 1 hour ago

Overcast
Overcast
55.0 °F
Feels Like 55.0 °F
N
3.0
Wind Variable Wind from SE
Gusts 8.0 mph

Today
High -- | Low -- °F
--% Chance of Precip.
Yesterday
High -- | Low -- °F
Precip. -- in
Pressure 30.07 in
Visibility 10.0 miles
Clouds Overcast 1000 ft
Dew Point 51.0 °F
Humidity 87%
Rainfall in
Snow Depth Not available.
6:47 AM 6:47 PM
Waning Crescent, 28% visible
METAR KLNL 251135Z AUTO 15007KT 10SM OVC010 15/12 A3007 RMK AO2 T01450120
Pressure 30.07 in
Visibility 10.0 miles
Clouds Overcast 1000 ft
Dew Point 51.0 °F
Humidity 87%
Rainfall in
Snow Depth Not available.
6:47 AM 6:47 PM
Waning Crescent, 28% visible
METAR KLNL 251135Z AUTO 15007KT 10SM OVC010 15/12 A3007 RMK AO2 T01450120

10-Day Weather Forecast

Almanac

Astronomy

Sep. 25, 2016 Rise Set
Actual Time
Civil Twilight
Nautical Twilight
Astronomical Twilight
Moon
Length of Visible Light
Length of Day
Tomorrow will be .
, % of the Moon is Illuminated

Today's Extremes

State Highs State Lows

Community

WunderPhotos

Upload Photos

1,941,579 photos uploaded!

WunderBlog® & News

Nearby

Air Quality

  Air Quality AQ Index Pollutant
Not available.

Snow Depth

Station Depth Elevation

Earthquake Activity

City Distance Mag. Time & Date
Minimum magnitude displayed is 2.5.

Coastal Water Temperatures

Place Temperature

Stations

Nearby Weather Stations

Station Location Temp. Windchill Dew Point Humidity Wind Precip. Elev Updated Type
                   

Watches & Warnings

There are currently no watches in effect.